sensor_id;sensor_type;location;lat;lon;timestamp;P1;durP1;ratioP1;P2;durP2;ratioP2
17369;SDS011;8802;52.402;4.920;2023-11-21T00:00:37;8.20;;;5.40;;
17369;SDS011;8802;52.402;4.920;2023-11-21T00:03:04;7.07;;;5.22;;
17369;SDS011;8802;52.402;4.920;2023-11-21T00:05:31;6.45;;;5.40;;
17369;SDS011;8802;52.402;4.920;2023-11-21T00:07:58;7.88;;;5.55;;
17369;SDS011;8802;52.402;4.920;2023-11-21T00:10:25;8.38;;;5.40;;
17369;SDS011;8802;52.402;4.920;2023-11-21T00:12:53;8.05;;;5.70;;
17369;SDS011;8802;52.402;4.920;2023-11-21T00:15:22;6.85;;;5.40;;
17369;SDS011;8802;52.402;4.920;2023-11-21T00:17:52;7.93;;;5.35;;
17369;SDS011;8802;52.402;4.920;2023-11-21T00:20:20;8.55;;;5.57;;
17369;SDS011;8802;52.402;4.920;2023-11-21T00:22:47;9.48;;;5.43;;
17369;SDS011;8802;52.402;4.920;2023-11-21T00:25:14;6.55;;;5.85;;
17369;SDS011;8802;52.402;4.920;2023-11-21T00:27:42;9.52;;;5.68;;
17369;SDS011;8802;52.402;4.920;2023-11-21T00:30:09;8.18;;;5.38;;
17369;SDS011;8802;52.402;4.920;2023-11-21T00:32:37;8.10;;;4.95;;
17369;SDS011;8802;52.402;4.920;2023-11-21T00:35:06;9.43;;;5.93;;
17369;SDS011;8802;52.402;4.920;2023-11-21T00:37:33;6.85;;;5.40;;
17369;SDS011;8802;52.402;4.920;2023-11-21T00:40:00;7.50;;;5.43;;
17369;SDS011;8802;52.402;4.920;2023-11-21T00:42:30;6.85;;;4.97;;
17369;SDS011;8802;52.402;4.920;2023-11-21T00:44:58;9.38;;;5.45;;
17369;SDS011;8802;52.402;4.920;2023-11-21T00:47:25;8.25;;;5.40;;
17369;SDS011;8802;52.402;4.920;2023-11-21T00:49:51;7.80;;;5.53;;
17369;SDS011;8802;52.402;4.920;2023-11-21T00:52:20;10.55;;;5.75;;
17369;SDS011;8802;52.402;4.920;2023-11-21T00:54:47;7.90;;;6.40;;
17369;SDS011;8802;52.402;4.920;2023-11-21T00:57:14;8.30;;;5.65;;
17369;SDS011;8802;52.402;4.920;2023-11-21T00:59:41;8.98;;;5.70;;
17369;SDS011;8802;52.402;4.920;2023-11-21T01:02:08;6.50;;;5.10;;
17369;SDS011;8802;52.402;4.920;2023-11-21T01:04:36;9.88;;;5.80;;
17369;SDS011;8802;52.402;4.920;2023-11-21T01:07:03;8.48;;;6.00;;
17369;SDS011;8802;52.402;4.920;2023-11-21T01:09:32;8.85;;;5.18;;
17369;SDS011;8802;52.402;4.920;2023-11-21T01:11:58;8.13;;;5.70;;
17369;SDS011;8802;52.402;4.920;2023-11-21T01:14:25;8.77;;;5.53;;
17369;SDS011;8802;52.402;4.920;2023-11-21T01:16:53;9.52;;;5.70;;
17369;SDS011;8802;52.402;4.920;2023-11-21T01:19:20;6.80;;;5.47;;
17369;SDS011;8802;52.402;4.920;2023-11-21T01:21:47;7.75;;;5.60;;
17369;SDS011;8802;52.402;4.920;2023-11-21T01:24:14;7.60;;;5.00;;
17369;SDS011;8802;52.402;4.920;2023-11-21T01:26:42;8.15;;;5.75;;
17369;SDS011;8802;52.402;4.920;2023-11-21T01:29:11;8.73;;;5.72;;
17369;SDS011;8802;52.402;4.920;2023-11-21T01:31:38;8.95;;;5.53;;
17369;SDS011;8802;52.402;4.920;2023-11-21T01:34:05;6.25;;;5.30;;
17369;SDS011;8802;52.402;4.920;2023-11-21T01:36:32;8.40;;;5.50;;
17369;SDS011;8802;52.402;4.920;2023-11-21T01:39:00;8.65;;;5.47;;
17369;SDS011;8802;52.402;4.920;2023-11-21T01:41:28;8.80;;;5.95;;
17369;SDS011;8802;52.402;4.920;2023-11-21T01:43:57;10.05;;;5.97;;
17369;SDS011;8802;52.402;4.920;2023-11-21T01:46:24;6.75;;;4.75;;
17369;SDS011;8802;52.402;4.920;2023-11-21T01:48:51;8.85;;;5.43;;
17369;SDS011;8802;52.402;4.920;2023-11-21T01:51:18;9.60;;;5.40;;
17369;SDS011;8802;52.402;4.920;2023-11-21T01:53:46;13.27;;;5.68;;
17369;SDS011;8802;52.402;4.920;2023-11-21T01:56:13;9.15;;;5.82;;
17369;SDS011;8802;52.402;4.920;2023-11-21T01:58:41;9.85;;;5.38;;
17369;SDS011;8802;52.402;4.920;2023-11-21T02:01:10;7.38;;;5.20;;
17369;SDS011;8802;52.402;4.920;2023-11-21T02:03:37;7.05;;;4.82;;
17369;SDS011;8802;52.402;4.920;2023-11-21T02:06:04;9.40;;;5.43;;
17369;SDS011;8802;52.402;4.920;2023-11-21T02:08:32;7.97;;;5.53;;
17369;SDS011;8802;52.402;4.920;2023-11-21T02:10:59;8.70;;;4.95;;
17369;SDS011;8802;52.402;4.920;2023-11-21T02:13:27;7.28;;;5.05;;
17369;SDS011;8802;52.402;4.920;2023-11-21T02:15:54;9.00;;;5.50;;
17369;SDS011;8802;52.402;4.920;2023-11-21T02:18:22;11.63;;;5.80;;
17369;SDS011;8802;52.402;4.920;2023-11-21T02:20:49;7.95;;;5.28;;
17369;SDS011;8802;52.402;4.920;2023-11-21T02:23:17;8.60;;;5.22;;
17369;SDS011;8802;52.402;4.920;2023-11-21T02:25:44;8.15;;;4.95;;
17369;SDS011;8802;52.402;4.920;2023-11-21T02:28:12;9.18;;;4.82;;
17369;SDS011;8802;52.402;4.920;2023-11-21T02:30:40;7.00;;;5.45;;
17369;SDS011;8802;52.402;4.920;2023-11-21T02:33:07;7.18;;;4.78;;
17369;SDS011;8802;52.402;4.920;2023-11-21T02:35:34;7.15;;;5.53;;
17369;SDS011;8802;52.402;4.920;2023-11-21T02:38:01;9.63;;;5.60;;
17369;SDS011;8802;52.402;4.920;2023-11-21T02:40:30;6.47;;;5.35;;
17369;SDS011;8802;52.402;4.920;2023-11-21T02:42:56;8.75;;;5.25;;
17369;SDS011;8802;52.402;4.920;2023-11-21T02:45:24;7.40;;;4.75;;
17369;SDS011;8802;52.402;4.920;2023-11-21T02:47:51;6.47;;;4.90;;
17369;SDS011;8802;52.402;4.920;2023-11-21T02:50:21;7.60;;;4.90;;
17369;SDS011;8802;52.402;4.920;2023-11-21T02:52:48;7.68;;;5.60;;
17369;SDS011;8802;52.402;4.920;2023-11-21T02:55:16;6.20;;;5.03;;
17369;SDS011;8802;52.402;4.920;2023-11-21T02:57:44;6.40;;;4.47;;
17369;SDS011;8802;52.402;4.920;2023-11-21T03:00:10;7.55;;;5.57;;
17369;SDS011;8802;52.402;4.920;2023-11-21T03:02:40;10.00;;;5.10;;
17369;SDS011;8802;52.402;4.920;2023-11-21T03:05:07;7.85;;;5.00;;
17369;SDS011;8802;52.402;4.920;2023-11-21T03:07:35;7.68;;;5.35;;
17369;SDS011;8802;52.402;4.920;2023-11-21T03:10:02;8.57;;;5.43;;
17369;SDS011;8802;52.402;4.920;2023-11-21T03:12:30;8.57;;;5.30;;
17369;SDS011;8802;52.402;4.920;2023-11-21T03:14:58;8.80;;;5.60;;
17369;SDS011;8802;52.402;4.920;2023-11-21T03:17:26;10.82;;;6.50;;
17369;SDS011;8802;52.402;4.920;2023-11-21T03:19:54;8.55;;;5.43;;
17369;SDS011;8802;52.402;4.920;2023-11-21T03:22:22;8.95;;;5.45;;
17369;SDS011;8802;52.402;4.920;2023-11-21T03:24:49;7.05;;;6.05;;
17369;SDS011;8802;52.402;4.920;2023-11-21T03:27:16;8.45;;;5.40;;
17369;SDS011;8802;52.402;4.920;2023-11-21T03:29:43;7.93;;;4.88;;
17369;SDS011;8802;52.402;4.920;2023-11-21T03:32:11;6.75;;;5.47;;
17369;SDS011;8802;52.402;4.920;2023-11-21T03:34:52;7.47;;;5.13;;
17369;SDS011;8802;52.402;4.920;2023-11-21T03:37:21;10.27;;;5.65;;
17369;SDS011;8802;52.402;4.920;2023-11-21T03:39:48;10.40;;;5.47;;
17369;SDS011;8802;52.402;4.920;2023-11-21T03:42:15;5.70;;;4.25;;
17369;SDS011;8802;52.402;4.920;2023-11-21T03:44:42;5.63;;;4.38;;
17369;SDS011;8802;52.402;4.920;2023-11-21T03:47:09;8.05;;;5.10;;
17369;SDS011;8802;52.402;4.920;2023-11-21T03:49:37;7.15;;;4.68;;
17369;SDS011;8802;52.402;4.920;2023-11-21T03:52:05;6.40;;;4.15;;
17369;SDS011;8802;52.402;4.920;2023-11-21T03:54:34;5.35;;;4.70;;
17369;SDS011;8802;52.402;4.920;2023-11-21T03:57:01;5.25;;;4.20;;
17369;SDS011;8802;52.402;4.920;2023-11-21T03:59:28;5.95;;;4.30;;
17369;SDS011;8802;52.402;4.920;2023-11-21T04:01:55;4.72;;;4.25;;
17369;SDS011;8802;52.402;4.920;2023-11-21T04:04:22;6.20;;;4.57;;
17369;SDS011;8802;52.402;4.920;2023-11-21T04:06:51;4.60;;;3.60;;
17369;SDS011;8802;52.402;4.920;2023-11-21T04:09:18;4.72;;;3.38;;
17369;SDS011;8802;52.402;4.920;2023-11-21T04:11:45;4.15;;;3.65;;
17369;SDS011;8802;52.402;4.920;2023-11-21T04:14:12;3.35;;;2.63;;
17369;SDS011;8802;52.402;4.920;2023-11-21T04:16:40;3.15;;;2.63;;
17369;SDS011;8802;52.402;4.920;2023-11-21T04:19:08;5.13;;;3.00;;
17369;SDS011;8802;52.402;4.920;2023-11-21T04:21:35;5.47;;;3.20;;
17369;SDS011;8802;52.402;4.920;2023-11-21T04:24:04;3.03;;;2.60;;
17369;SDS011;8802;52.402;4.920;2023-11-21T04:26:31;6.45;;;2.97;;
17369;SDS011;8802;52.402;4.920;2023-11-21T04:28:58;4.28;;;2.80;;
17369;SDS011;8802;52.402;4.920;2023-11-21T04:31:25;3.22;;;2.92;;
17369;SDS011;8802;52.402;4.920;2023-11-21T04:33:52;3.25;;;2.92;;
17369;SDS011;8802;52.402;4.920;2023-11-21T04:36:19;3.40;;;2.65;;
17369;SDS011;8802;52.402;4.920;2023-11-21T04:38:46;4.20;;;3.00;;
17369;SDS011;8802;52.402;4.920;2023-11-21T04:41:14;4.63;;;2.85;;
17369;SDS011;8802;52.402;4.920;2023-11-21T04:43:41;3.92;;;2.92;;
17369;SDS011;8802;52.402;4.920;2023-11-21T04:46:08;5.43;;;3.30;;
17369;SDS011;8802;52.402;4.920;2023-11-21T04:48:35;2.97;;;2.53;;
17369;SDS011;8802;52.402;4.920;2023-11-21T04:51:02;5.85;;;3.22;;
17369;SDS011;8802;52.402;4.920;2023-11-21T04:53:30;4.85;;;3.13;;
17369;SDS011;8802;52.402;4.920;2023-11-21T04:55:57;4.47;;;3.60;;
17369;SDS011;8802;52.402;4.920;2023-11-21T04:58:25;5.70;;;2.92;;
17369;SDS011;8802;52.402;4.920;2023-11-21T05:00:52;4.93;;;3.40;;
17369;SDS011;8802;52.402;4.920;2023-11-21T05:03:19;4.72;;;2.65;;
17369;SDS011;8802;52.402;4.920;2023-11-21T05:05:48;3.05;;;2.40;;
17369;SDS011;8802;52.402;4.920;2023-11-21T05:08:15;6.22;;;2.60;;
17369;SDS011;8802;52.402;4.920;2023-11-21T05:10:42;3.10;;;2.28;;
17369;SDS011;8802;52.402;4.920;2023-11-21T05:13:09;4.90;;;2.08;;
17369;SDS011;8802;52.402;4.920;2023-11-21T05:15:37;3.38;;;2.15;;
17369;SDS011;8802;52.402;4.920;2023-11-21T05:18:04;2.95;;;2.53;;
17369;SDS011;8802;52.402;4.920;2023-11-21T05:20:31;6.75;;;3.00;;
17369;SDS011;8802;52.402;4.920;2023-11-21T05:22:58;3.38;;;2.10;;
17369;SDS011;8802;52.402;4.920;2023-11-21T05:25:25;4.93;;;2.72;;
17369;SDS011;8802;52.402;4.920;2023-11-21T05:27:52;6.10;;;2.45;;
17369;SDS011;8802;52.402;4.920;2023-11-21T05:30:20;6.57;;;3.10;;
17369;SDS011;8802;52.402;4.920;2023-11-21T05:32:49;5.50;;;2.80;;
17369;SDS011;8802;52.402;4.920;2023-11-21T05:35:16;3.58;;;2.38;;
17369;SDS011;8802;52.402;4.920;2023-11-21T05:37:43;5.78;;;2.47;;
17369;SDS011;8802;52.402;4.920;2023-11-21T05:40:10;6.20;;;2.50;;
17369;SDS011;8802;52.402;4.920;2023-11-21T05:42:38;5.75;;;2.78;;
17369;SDS011;8802;52.402;4.920;2023-11-21T05:45:06;5.45;;;2.45;;
17369;SDS011;8802;52.402;4.920;2023-11-21T05:47:36;6.13;;;2.60;;
17369;SDS011;8802;52.402;4.920;2023-11-21T05:50:06;7.22;;;2.78;;
17369;SDS011;8802;52.402;4.920;2023-11-21T05:52:35;3.22;;;2.63;;
17369;SDS011;8802;52.402;4.920;2023-11-21T05:55:02;5.57;;;2.67;;
17369;SDS011;8802;52.402;4.920;2023-11-21T05:57:32;6.97;;;3.08;;
17369;SDS011;8802;52.402;4.920;2023-11-21T05:59:59;7.63;;;3.40;;
17369;SDS011;8802;52.402;4.920;2023-11-21T06:02:34;5.57;;;2.80;;
17369;SDS011;8802;52.402;4.920;2023-11-21T06:05:01;5.57;;;3.08;;
17369;SDS011;8802;52.402;4.920;2023-11-21T06:07:30;6.32;;;3.15;;
17369;SDS011;8802;52.402;4.920;2023-11-21T06:09:57;6.05;;;3.05;;
17369;SDS011;8802;52.402;4.920;2023-11-21T06:12:24;3.08;;;2.60;;
17369;SDS011;8802;52.402;4.920;2023-11-21T06:14:51;5.45;;;2.90;;
17369;SDS011;8802;52.402;4.920;2023-11-21T06:17:18;6.45;;;3.30;;
17369;SDS011;8802;52.402;4.920;2023-11-21T06:19:45;6.90;;;2.63;;
17369;SDS011;8802;52.402;4.920;2023-11-21T06:22:11;5.28;;;3.22;;
17369;SDS011;8802;52.402;4.920;2023-11-21T06:24:40;6.20;;;3.20;;
17369;SDS011;8802;52.402;4.920;2023-11-21T06:27:07;9.48;;;3.50;;
17369;SDS011;8802;52.402;4.920;2023-11-21T06:29:34;5.57;;;3.45;;
17369;SDS011;8802;52.402;4.920;2023-11-21T06:32:02;7.75;;;3.28;;
17369;SDS011;8802;52.402;4.920;2023-11-21T06:34:30;7.07;;;3.78;;
17369;SDS011;8802;52.402;4.920;2023-11-21T06:36:57;5.72;;;3.60;;
17369;SDS011;8802;52.402;4.920;2023-11-21T06:39:23;5.68;;;4.07;;
17369;SDS011;8802;52.402;4.920;2023-11-21T06:41:52;5.85;;;3.72;;
17369;SDS011;8802;52.402;4.920;2023-11-21T06:44:19;5.82;;;4.05;;
17369;SDS011;8802;52.402;4.920;2023-11-21T06:46:47;8.18;;;4.40;;
17369;SDS011;8802;52.402;4.920;2023-11-21T06:49:13;6.10;;;4.60;;
17369;SDS011;8802;52.402;4.920;2023-11-21T06:51:41;9.88;;;4.18;;
17369;SDS011;8802;52.402;4.920;2023-11-21T06:54:08;6.32;;;3.83;;
17369;SDS011;8802;52.402;4.920;2023-11-21T06:56:35;7.65;;;4.25;;
17369;SDS011;8802;52.402;4.920;2023-11-21T06:59:04;7.47;;;4.10;;
17369;SDS011;8802;52.402;4.920;2023-11-21T07:01:31;7.53;;;4.53;;
17369;SDS011;8802;52.402;4.920;2023-11-21T07:04:04;5.70;;;3.25;;
17369;SDS011;8802;52.402;4.920;2023-11-21T07:06:31;5.63;;;4.30;;
17369;SDS011;8802;52.402;4.920;2023-11-21T07:08:58;7.03;;;4.13;;
17369;SDS011;8802;52.402;4.920;2023-11-21T07:11:26;8.82;;;4.57;;
17369;SDS011;8802;52.402;4.920;2023-11-21T07:13:53;5.90;;;5.18;;
17369;SDS011;8802;52.402;4.920;2023-11-21T07:16:21;8.23;;;5.22;;
17369;SDS011;8802;52.402;4.920;2023-11-21T07:18:48;8.80;;;5.05;;
17369;SDS011;8802;52.402;4.920;2023-11-21T07:21:15;7.85;;;4.95;;
17369;SDS011;8802;52.402;4.920;2023-11-21T07:23:42;11.23;;;5.90;;
17369;SDS011;8802;52.402;4.920;2023-11-21T07:26:10;10.27;;;5.97;;
17369;SDS011;8802;52.402;4.920;2023-11-21T07:28:37;8.45;;;5.43;;
17369;SDS011;8802;52.402;4.920;2023-11-21T07:31:04;7.68;;;6.00;;
17369;SDS011;8802;52.402;4.920;2023-11-21T07:33:33;11.30;;;6.15;;
17369;SDS011;8802;52.402;4.920;2023-11-21T07:36:00;7.35;;;5.57;;
17369;SDS011;8802;52.402;4.920;2023-11-21T07:38:27;9.75;;;5.32;;
17369;SDS011;8802;52.402;4.920;2023-11-21T07:40:54;8.85;;;5.57;;
17369;SDS011;8802;52.402;4.920;2023-11-21T07:43:21;8.70;;;5.82;;
17369;SDS011;8802;52.402;4.920;2023-11-21T07:45:47;11.98;;;5.55;;
17369;SDS011;8802;52.402;4.920;2023-11-21T07:48:14;7.88;;;5.80;;
17369;SDS011;8802;52.402;4.920;2023-11-21T07:50:43;8.02;;;5.40;;
17369;SDS011;8802;52.402;4.920;2023-11-21T07:53:11;8.70;;;5.28;;
17369;SDS011;8802;52.402;4.920;2023-11-21T07:55:39;9.63;;;5.90;;
17369;SDS011;8802;52.402;4.920;2023-11-21T07:58:06;7.72;;;5.40;;
17369;SDS011;8802;52.402;4.920;2023-11-21T08:00:33;9.85;;;5.75;;
17369;SDS011;8802;52.402;4.920;2023-11-21T08:03:00;8.05;;;5.32;;
17369;SDS011;8802;52.402;4.920;2023-11-21T08:05:27;7.40;;;5.25;;
17369;SDS011;8802;52.402;4.920;2023-11-21T08:07:56;7.45;;;5.85;;
17369;SDS011;8802;52.402;4.920;2023-11-21T08:10:22;11.63;;;6.55;;
17369;SDS011;8802;52.402;4.920;2023-11-21T08:12:50;10.10;;;6.38;;
17369;SDS011;8802;52.402;4.920;2023-11-21T08:15:17;8.43;;;6.03;;
17369;SDS011;8802;52.402;4.920;2023-11-21T08:17:44;11.18;;;6.63;;
17369;SDS011;8802;52.402;4.920;2023-11-21T08:20:12;9.68;;;6.03;;
17369;SDS011;8802;52.402;4.920;2023-11-21T08:22:41;7.75;;;6.22;;
17369;SDS011;8802;52.402;4.920;2023-11-21T08:25:10;8.35;;;5.35;;
17369;SDS011;8802;52.402;4.920;2023-11-21T08:27:37;7.35;;;5.32;;
17369;SDS011;8802;52.402;4.920;2023-11-21T08:30:05;7.25;;;5.68;;
17369;SDS011;8802;52.402;4.920;2023-11-21T08:32:33;7.75;;;5.05;;
17369;SDS011;8802;52.402;4.920;2023-11-21T08:35:00;7.07;;;6.25;;
17369;SDS011;8802;52.402;4.920;2023-11-21T08:37:27;8.25;;;6.05;;
17369;SDS011;8802;52.402;4.920;2023-11-21T08:39:57;10.70;;;6.90;;
17369;SDS011;8802;52.402;4.920;2023-11-21T08:42:26;7.95;;;7.13;;
17369;SDS011;8802;52.402;4.920;2023-11-21T08:44:54;9.77;;;7.75;;
17369;SDS011;8802;52.402;4.920;2023-11-21T08:47:23;8.77;;;7.88;;
17369;SDS011;8802;52.402;4.920;2023-11-21T08:49:51;10.23;;;7.32;;
17369;SDS011;8802;52.402;4.920;2023-11-21T08:52:18;9.63;;;7.90;;
17369;SDS011;8802;52.402;4.920;2023-11-21T08:54:46;10.50;;;8.73;;
17369;SDS011;8802;52.402;4.920;2023-11-21T08:57:13;11.65;;;9.25;;
17369;SDS011;8802;52.402;4.920;2023-11-21T08:59:42;12.65;;;8.65;;
17369;SDS011;8802;52.402;4.920;2023-11-21T09:02:08;11.82;;;8.93;;
17369;SDS011;8802;52.402;4.920;2023-11-21T09:04:35;11.20;;;9.70;;
17369;SDS011;8802;52.402;4.920;2023-11-21T09:07:03;11.30;;;9.40;;
17369;SDS011;8802;52.402;4.920;2023-11-21T09:09:30;11.20;;;9.95;;
17369;SDS011;8802;52.402;4.920;2023-11-21T09:11:57;12.13;;;8.73;;
17369;SDS011;8802;52.402;4.920;2023-11-21T09:14:25;11.57;;;9.73;;
17369;SDS011;8802;52.402;4.920;2023-11-21T09:16:54;11.55;;;9.88;;
17369;SDS011;8802;52.402;4.920;2023-11-21T09:19:21;11.27;;;10.07;;
17369;SDS011;8802;52.402;4.920;2023-11-21T09:21:48;15.27;;;10.65;;
17369;SDS011;8802;52.402;4.920;2023-11-21T09:24:15;10.95;;;9.70;;
17369;SDS011;8802;52.402;4.920;2023-11-21T09:26:42;12.80;;;10.15;;
17369;SDS011;8802;52.402;4.920;2023-11-21T09:29:09;11.88;;;10.07;;
17369;SDS011;8802;52.402;4.920;2023-11-21T09:31:35;11.48;;;9.55;;
17369;SDS011;8802;52.402;4.920;2023-11-21T09:34:05;12.63;;;10.18;;
17369;SDS011;8802;52.402;4.920;2023-11-21T09:36:32;10.93;;;9.70;;
17369;SDS011;8802;52.402;4.920;2023-11-21T09:38:58;11.10;;;8.80;;
17369;SDS011;8802;52.402;4.920;2023-11-21T09:41:29;11.55;;;9.02;;
17369;SDS011;8802;52.402;4.920;2023-11-21T09:44:00;13.52;;;10.13;;
17369;SDS011;8802;52.402;4.920;2023-11-21T09:46:32;10.45;;;8.25;;
17369;SDS011;8802;52.402;4.920;2023-11-21T09:48:59;9.80;;;8.40;;
17369;SDS011;8802;52.402;4.920;2023-11-21T09:51:31;10.85;;;8.10;;
17369;SDS011;8802;52.402;4.920;2023-11-21T09:54:04;8.52;;;7.32;;
17369;SDS011;8802;52.402;4.920;2023-11-21T09:56:34;9.48;;;7.63;;
17369;SDS011;8802;52.402;4.920;2023-11-21T09:59:01;9.27;;;8.00;;
17369;SDS011;8802;52.402;4.920;2023-11-21T10:01:31;11.55;;;8.60;;
17369;SDS011;8802;52.402;4.920;2023-11-21T10:03:59;11.70;;;8.90;;
17369;SDS011;8802;52.402;4.920;2023-11-21T10:06:27;10.10;;;8.80;;
17369;SDS011;8802;52.402;4.920;2023-11-21T10:08:56;13.57;;;10.43;;
17369;SDS011;8802;52.402;4.920;2023-11-21T10:11:25;11.55;;;9.40;;
17369;SDS011;8802;52.402;4.920;2023-11-21T10:13:56;12.50;;;9.82;;
17369;SDS011;8802;52.402;4.920;2023-11-21T10:16:26;14.23;;;9.98;;
17369;SDS011;8802;52.402;4.920;2023-11-21T10:18:54;15.05;;;10.95;;
17369;SDS011;8802;52.402;4.920;2023-11-21T10:21:24;14.50;;;11.65;;
17369;SDS011;8802;52.402;4.920;2023-11-21T10:23:51;15.00;;;11.32;;
17369;SDS011;8802;52.402;4.920;2023-11-21T10:26:21;14.88;;;10.88;;
17369;SDS011;8802;52.402;4.920;2023-11-21T10:28:55;14.15;;;10.48;;
17369;SDS011;8802;52.402;4.920;2023-11-21T10:31:23;13.93;;;10.07;;
17369;SDS011;8802;52.402;4.920;2023-11-21T10:33:50;11.95;;;9.93;;
17369;SDS011;8802;52.402;4.920;2023-11-21T10:36:24;10.55;;;9.10;;
17369;SDS011;8802;52.402;4.920;2023-11-21T10:38:52;9.88;;;8.82;;
17369;SDS011;8802;52.402;4.920;2023-11-21T10:41:19;10.65;;;9.55;;
17369;SDS011;8802;52.402;4.920;2023-11-21T10:43:48;12.93;;;10.05;;
17369;SDS011;8802;52.402;4.920;2023-11-21T10:46:15;12.05;;;9.52;;
17369;SDS011;8802;52.402;4.920;2023-11-21T10:48:42;9.88;;;8.82;;
17369;SDS011;8802;52.402;4.920;2023-11-21T10:51:09;12.70;;;10.60;;
17369;SDS011;8802;52.402;4.920;2023-11-21T10:53:38;13.00;;;10.80;;
17369;SDS011;8802;52.402;4.920;2023-11-21T10:56:08;12.02;;;9.48;;
17369;SDS011;8802;52.402;4.920;2023-11-21T10:58:38;12.43;;;10.32;;
17369;SDS011;8802;52.402;4.920;2023-11-21T11:01:05;11.75;;;9.60;;
17369;SDS011;8802;52.402;4.920;2023-11-21T11:03:36;12.32;;;9.52;;
17369;SDS011;8802;52.402;4.920;2023-11-21T11:06:05;10.57;;;9.25;;
17369;SDS011;8802;52.402;4.920;2023-11-21T11:08:36;10.10;;;8.85;;
17369;SDS011;8802;52.402;4.920;2023-11-21T11:11:04;10.63;;;9.25;;
17369;SDS011;8802;52.402;4.920;2023-11-21T11:13:31;9.52;;;8.15;;
17369;SDS011;8802;52.402;4.920;2023-11-21T11:16:00;9.68;;;8.23;;
17369;SDS011;8802;52.402;4.920;2023-11-21T11:18:29;8.23;;;7.43;;
17369;SDS011;8802;52.402;4.920;2023-11-21T11:20:57;9.32;;;8.38;;
17369;SDS011;8802;52.402;4.920;2023-11-21T11:23:36;9.38;;;8.30;;
17369;SDS011;8802;52.402;4.920;2023-11-21T11:26:15;9.73;;;8.48;;
17369;SDS011;8802;52.402;4.920;2023-11-21T11:28:57;9.35;;;8.32;;
17369;SDS011;8802;52.402;4.920;2023-11-21T11:31:37;9.45;;;8.45;;
17369;SDS011;8802;52.402;4.920;2023-11-21T11:34:14;9.20;;;8.30;;
17369;SDS011;8802;52.402;4.920;2023-11-21T11:36:52;8.70;;;7.75;;
17369;SDS011;8802;52.402;4.920;2023-11-21T11:39:27;8.93;;;7.85;;
17369;SDS011;8802;52.402;4.920;2023-11-21T11:41:55;9.38;;;7.82;;
17369;SDS011;8802;52.402;4.920;2023-11-21T11:47:19;8.43;;;7.50;;
17369;SDS011;8802;52.402;4.920;2023-11-21T11:50:01;8.75;;;7.30;;
17369;SDS011;8802;52.402;4.920;2023-11-21T11:52:37;8.50;;;7.38;;
17369;SDS011;8802;52.402;4.920;2023-11-21T11:55:06;7.10;;;6.40;;
17369;SDS011;8802;52.402;4.920;2023-11-21T11:57:36;7.55;;;6.85;;
17369;SDS011;8802;52.402;4.920;2023-11-21T12:00:07;8.52;;;7.10;;
17369;SDS011;8802;52.402;4.920;2023-11-21T12:02:43;9.35;;;7.53;;
17369;SDS011;8802;52.402;4.920;2023-11-21T12:05:12;9.32;;;7.93;;
17369;SDS011;8802;52.402;4.920;2023-11-21T12:07:41;9.65;;;7.38;;
17369;SDS011;8802;52.402;4.920;2023-11-21T12:10:11;8.52;;;7.63;;
17369;SDS011;8802;52.402;4.920;2023-11-21T12:12:41;9.75;;;8.38;;
17369;SDS011;8802;52.402;4.920;2023-11-21T12:15:10;10.32;;;8.18;;
17369;SDS011;8802;52.402;4.920;2023-11-21T12:17:37;8.90;;;7.90;;
17369;SDS011;8802;52.402;4.920;2023-11-21T12:20:06;8.98;;;8.07;;
17369;SDS011;8802;52.402;4.920;2023-11-21T12:22:41;9.25;;;7.93;;
17369;SDS011;8802;52.402;4.920;2023-11-21T12:25:09;9.05;;;7.95;;
17369;SDS011;8802;52.402;4.920;2023-11-21T12:27:41;10.38;;;8.82;;
17369;SDS011;8802;52.402;4.920;2023-11-21T12:30:09;10.43;;;9.27;;
17369;SDS011;8802;52.402;4.920;2023-11-21T12:32:38;10.25;;;9.15;;
17369;SDS011;8802;52.402;4.920;2023-11-21T12:35:08;10.48;;;8.68;;
17369;SDS011;8802;52.402;4.920;2023-11-21T12:37:36;9.73;;;8.77;;
17369;SDS011;8802;52.402;4.920;2023-11-21T12:40:04;10.52;;;8.93;;
17369;SDS011;8802;52.402;4.920;2023-11-21T12:42:33;11.32;;;10.30;;
17369;SDS011;8802;52.402;4.920;2023-11-21T12:45:07;12.15;;;10.80;;
17369;SDS011;8802;52.402;4.920;2023-11-21T12:47:39;14.35;;;11.73;;
17369;SDS011;8802;52.402;4.920;2023-11-21T12:50:08;13.57;;;12.05;;
17369;SDS011;8802;52.402;4.920;2023-11-21T12:52:39;12.95;;;11.55;;
17369;SDS011;8802;52.402;4.920;2023-11-21T12:55:09;15.70;;;12.73;;
17369;SDS011;8802;52.402;4.920;2023-11-21T12:57:40;13.13;;;11.73;;
17369;SDS011;8802;52.402;4.920;2023-11-21T13:00:09;13.00;;;11.68;;
17369;SDS011;8802;52.402;4.920;2023-11-21T13:02:41;13.80;;;12.10;;
17369;SDS011;8802;52.402;4.920;2023-11-21T13:05:15;13.02;;;11.63;;
17369;SDS011;8802;52.402;4.920;2023-11-21T13:07:50;12.68;;;11.38;;
17369;SDS011;8802;52.402;4.920;2023-11-21T13:10:19;12.32;;;10.50;;
17369;SDS011;8802;52.402;4.920;2023-11-21T13:12:51;10.90;;;9.75;;
17369;SDS011;8802;52.402;4.920;2023-11-21T13:15:19;10.38;;;9.40;;
17369;SDS011;8802;52.402;4.920;2023-11-21T13:17:47;11.20;;;10.07;;
17369;SDS011;8802;52.402;4.920;2023-11-21T13:20:16;10.55;;;9.55;;
17369;SDS011;8802;52.402;4.920;2023-11-21T13:22:48;11.75;;;9.40;;
17369;SDS011;8802;52.402;4.920;2023-11-21T13:25:19;11.65;;;9.70;;
17369;SDS011;8802;52.402;4.920;2023-11-21T13:27:45;10.95;;;9.88;;
17369;SDS011;8802;52.402;4.920;2023-11-21T13:30:13;9.98;;;8.98;;
17369;SDS011;8802;52.402;4.920;2023-11-21T13:32:48;8.63;;;7.82;;
17369;SDS011;8802;52.402;4.920;2023-11-21T13:35:18;9.02;;;8.13;;
17369;SDS011;8802;52.402;4.920;2023-11-21T13:37:55;8.65;;;7.78;;
17369;SDS011;8802;52.402;4.920;2023-11-21T13:40:25;8.77;;;7.97;;
17369;SDS011;8802;52.402;4.920;2023-11-21T13:42:53;7.65;;;6.93;;
17369;SDS011;8802;52.402;4.920;2023-11-21T13:45:23;7.50;;;6.80;;
17369;SDS011;8802;52.402;4.920;2023-11-21T13:47:51;7.38;;;6.63;;
17369;SDS011;8802;52.402;4.920;2023-11-21T13:50:24;7.22;;;6.63;;
17369;SDS011;8802;52.402;4.920;2023-11-21T13:52:55;7.53;;;6.80;;
17369;SDS011;8802;52.402;4.920;2023-11-21T13:55:23;7.15;;;6.50;;
17369;SDS011;8802;52.402;4.920;2023-11-21T13:57:50;7.72;;;7.03;;
17369;SDS011;8802;52.402;4.920;2023-11-21T14:00:18;7.53;;;6.82;;
17369;SDS011;8802;52.402;4.920;2023-11-21T14:03:09;8.15;;;7.35;;
17369;SDS011;8802;52.402;4.920;2023-11-21T14:05:45;8.43;;;7.30;;
17369;SDS011;8802;52.402;4.920;2023-11-21T14:08:16;7.95;;;7.25;;
17369;SDS011;8802;52.402;4.920;2023-11-21T14:10:45;9.60;;;8.70;;
17369;SDS011;8802;52.402;4.920;2023-11-21T14:13:16;8.55;;;7.82;;
17369;SDS011;8802;52.402;4.920;2023-11-21T14:15:43;8.73;;;7.93;;
17369;SDS011;8802;52.402;4.920;2023-11-21T14:18:11;8.55;;;7.75;;
17369;SDS011;8802;52.402;4.920;2023-11-21T14:20:44;8.48;;;7.68;;
17369;SDS011;8802;52.402;4.920;2023-11-21T14:23:12;8.95;;;8.15;;
17369;SDS011;8802;52.402;4.920;2023-11-21T14:25:40;9.45;;;8.60;;
17369;SDS011;8802;52.402;4.920;2023-11-21T14:28:07;10.15;;;9.18;;
17369;SDS011;8802;52.402;4.920;2023-11-21T14:30:36;11.10;;;10.02;;
17369;SDS011;8802;52.402;4.920;2023-11-21T14:33:11;10.98;;;9.98;;
17369;SDS011;8802;52.402;4.920;2023-11-21T14:35:49;12.10;;;10.77;;
17369;SDS011;8802;52.402;4.920;2023-11-21T14:38:16;12.30;;;11.20;;
17369;SDS011;8802;52.402;4.920;2023-11-21T14:40:43;11.68;;;10.57;;
17369;SDS011;8802;52.402;4.920;2023-11-21T14:43:10;11.38;;;10.15;;
17369;SDS011;8802;52.402;4.920;2023-11-21T14:45:38;11.00;;;9.95;;
17369;SDS011;8802;52.402;4.920;2023-11-21T14:48:05;12.27;;;10.77;;
17369;SDS011;8802;52.402;4.920;2023-11-21T14:50:36;12.38;;;11.13;;
17369;SDS011;8802;52.402;4.920;2023-11-21T14:53:14;11.75;;;10.55;;
17369;SDS011;8802;52.402;4.920;2023-11-21T14:55:40;11.27;;;10.27;;
17369;SDS011;8802;52.402;4.920;2023-11-21T14:58:21;11.05;;;10.05;;
17369;SDS011;8802;52.402;4.920;2023-11-21T15:00:51;11.73;;;10.73;;
17369;SDS011;8802;52.402;4.920;2023-11-21T15:03:23;11.20;;;10.20;;
17369;SDS011;8802;52.402;4.920;2023-11-21T15:06:08;11.75;;;10.75;;